ICE653 BIKF-BIAR
Flight info
| Callsign | ICE653 |
|---|---|
| Flight time | 0h 39m |
| Altitude | 21000 |
| Route | LUTER3C LUTER DCT ASKUR |
| Aircraft | B38M/M-SDE1FGHILORVWXY/HB1 |
Departure
| Time | 2026-04-30 12:22 |
|---|---|
| Airport | Keflavik International Airport (BIKF) |
Arrival
| Time | 2026-04-30 13:02 |
|---|---|
| Airport | Akureyri International Airport (BIAR) |
| Time | Latitude | Longitude | Altitude | Speed | Heading |
|---|---|---|---|---|---|
| 2026-04-30 12:09 | 63.99290 | -22.61820 | 113 ft | 0 kts | 90° |
| 2026-04-30 12:10 | 63.99290 | -22.61859 | 143 ft | 4 kts | 90° |
| 2026-04-30 12:10 | 63.99290 | -22.61915 | 143 ft | 3 kts | 90° |
| 2026-04-30 12:10 | 63.99295 | -22.61968 | 143 ft | 4 kts | 138° |
| 2026-04-30 12:10 | 63.99317 | -22.61986 | 143 ft | 4 kts | 179° |
| 2026-04-30 12:11 | 63.99327 | -22.61986 | 143 ft | 1 kts | 180° |
| 2026-04-30 12:17 | 63.99325 | -22.61986 | 143 ft | 0 kts | 180° |
| 2026-04-30 12:17 | 63.99321 | -22.61986 | 143 ft | 3 kts | 181° |
| 2026-04-30 12:17 | 63.99297 | -22.61986 | 143 ft | 4 kts | 180° |
| 2026-04-30 12:18 | 63.99257 | -22.61986 | 142 ft | 7 kts | 180° |
| 2026-04-30 12:18 | 63.99201 | -22.61983 | 143 ft | 7 kts | 171° |
| 2026-04-30 12:18 | 63.99178 | -22.61944 | 143 ft | 4 kts | 122° |
| 2026-04-30 12:18 | 63.99172 | -22.61847 | 144 ft | 11 kts | 91° |
| 2026-04-30 12:19 | 63.99174 | -22.61562 | 150 ft | 25 kts | 91° |
| 2026-04-30 12:19 | 63.99173 | -22.61164 | 159 ft | 13 kts | 90° |
| 2026-04-30 12:19 | 63.99173 | -22.61043 | 162 ft | 4 kts | 90° |
| 2026-04-30 12:19 | 63.99173 | -22.61029 | 162 ft | 0 kts | 90° |
| 2026-04-30 12:20 | 63.99173 | -22.61000 | 163 ft | 4 kts | 89° |
| 2026-04-30 12:20 | 63.99174 | -22.60853 | 166 ft | 17 kts | 89° |
| 2026-04-30 12:20 | 63.99175 | -22.60623 | 174 ft | 3 kts | 102° |
| 2026-04-30 12:20 | 63.99171 | -22.60598 | 175 ft | 1 kts | 108° |
| 2026-04-30 12:21 | 63.99170 | -22.60592 | 175 ft | 0 kts | 108° |
| 2026-04-30 12:21 | 63.99165 | -22.60564 | 176 ft | 3 kts | 117° |
| 2026-04-30 12:21 | 63.99152 | -22.60547 | 177 ft | 3 kts | 157° |
| 2026-04-30 12:21 | 63.99126 | -22.60539 | 177 ft | 0 kts | 179° |
| 2026-04-30 12:22 | 63.99117 | -22.60539 | 177 ft | 14 kts | 179° |
| 2026-04-30 12:22 | 63.98757 | -22.60544 | 175 ft | 88 kts | 180° |
| 2026-04-30 12:22 | 63.97955 | -22.60605 | 173 ft | 139 kts | 189° |
| 2026-04-30 12:22 | 63.97026 | -22.60689 | 823 ft | 137 kts | 183° |
| 2026-04-30 12:23 | 63.96023 | -22.60445 | 1410 ft | 149 kts | 176° |
| 2026-04-30 12:23 | 63.95017 | -22.59591 | 1891 ft | 162 kts | 169° |
| 2026-04-30 12:23 | 63.94025 | -22.57930 | 1886 ft | 205 kts | 128° |
| 2026-04-30 12:23 | 63.93615 | -22.54745 | 2087 ft | 210 kts | 105° |
| 2026-04-30 12:24 | 63.93222 | -22.51611 | 2533 ft | 201 kts | 119° |
| 2026-04-30 12:24 | 63.92561 | -22.48817 | 2821 ft | 207 kts | 114° |
| 2026-04-30 12:24 | 63.92136 | -22.45770 | 3381 ft | 201 kts | 117° |
| 2026-04-30 12:24 | 63.91603 | -22.42762 | 3622 ft | 216 kts | 120° |
| 2026-04-30 12:25 | 63.90973 | -22.39480 | 3680 ft | 236 kts | 118° |
| 2026-04-30 12:25 | 63.90313 | -22.35940 | 3778 ft | 250 kts | 117° |
| 2026-04-30 12:25 | 63.89631 | -22.32226 | 3954 ft | 258 kts | 117° |
| 2026-04-30 12:25 | 63.88924 | -22.28396 | 4121 ft | 264 kts | 117° |
| 2026-04-30 12:26 | 63.88211 | -22.24562 | 4313 ft | 268 kts | 117° |
| 2026-04-30 12:26 | 63.87480 | -22.20637 | 4660 ft | 273 kts | 117° |
| 2026-04-30 12:26 | 63.86736 | -22.16587 | 5553 ft | 278 kts | 116° |
| 2026-04-30 12:26 | 63.86482 | -22.12197 | 6394 ft | 286 kts | 89° |
| 2026-04-30 12:27 | 63.85972 | -22.07766 | 6434 ft | 311 kts | 124° |
| 2026-04-30 12:27 | 63.84767 | -22.03709 | 7497 ft | 293 kts | 128° |
| 2026-04-30 12:27 | 63.83828 | -22.00159 | 9722 ft | 246 kts | 119° |
| 2026-04-30 12:27 | 63.83322 | -21.96320 | 10268 ft | 271 kts | 100° |
| 2026-04-30 12:28 | 63.83381 | -21.91710 | 9625 ft | 298 kts | 79° |
| 2026-04-30 12:28 | 63.83886 | -21.87342 | 9890 ft | 280 kts | 68° |
| 2026-04-30 12:28 | 63.84719 | -21.83282 | 9772 ft | 266 kts | 59° |
| 2026-04-30 12:28 | 63.85499 | -21.79793 | 10598 ft | 255 kts | 73° |
| 2026-04-30 12:29 | 63.85844 | -21.75689 | 10937 ft | 272 kts | 85° |
| 2026-04-30 12:29 | 63.86034 | -21.71248 | 11285 ft | 291 kts | 86° |
| 2026-04-30 12:29 | 63.86285 | -21.66544 | 11626 ft | 311 kts | 82° |
| 2026-04-30 12:29 | 63.86684 | -21.61546 | 11952 ft | 332 kts | 80° |
| 2026-04-30 12:30 | 63.87125 | -21.56260 | 12279 ft | 351 kts | 81° |
| 2026-04-30 12:30 | 63.87542 | -21.50624 | 12439 ft | 374 kts | 82° |
| 2026-04-30 12:30 | 63.87963 | -21.44633 | 12696 ft | 393 kts | 81° |
| 2026-04-30 12:30 | 63.88764 | -21.38627 | 13174 ft | 405 kts | 64° |
| 2026-04-30 12:31 | 63.90051 | -21.32863 | 13768 ft | 412 kts | 61° |
| 2026-04-30 12:31 | 63.91430 | -21.27069 | 14460 ft | 420 kts | 60° |
| 2026-04-30 12:31 | 63.92805 | -21.21164 | 15056 ft | 426 kts | 61° |
| 2026-04-30 12:31 | 63.94160 | -21.15117 | 15639 ft | 431 kts | 62° |
| 2026-04-30 12:32 | 63.95528 | -21.09013 | 16249 ft | 436 kts | 61° |
| 2026-04-30 12:32 | 63.96930 | -21.02862 | 16866 ft | 440 kts | 60° |
| 2026-04-30 12:32 | 63.98348 | -20.96636 | 17446 ft | 445 kts | 61° |
| 2026-04-30 12:32 | 63.99767 | -20.90323 | 18043 ft | 450 kts | 61° |
| 2026-04-30 12:33 | 64.01197 | -20.83925 | 18565 ft | 455 kts | 61° |
| 2026-04-30 12:33 | 64.02641 | -20.77472 | 19110 ft | 458 kts | 62° |
| 2026-04-30 12:33 | 64.04079 | -20.71042 | 19620 ft | 462 kts | 62° |
| 2026-04-30 12:33 | 64.05540 | -20.64482 | 20133 ft | 466 kts | 62° |
| 2026-04-30 12:34 | 64.07009 | -20.57851 | 20631 ft | 469 kts | 61° |
| 2026-04-30 12:34 | 64.08493 | -20.51135 | 20909 ft | 471 kts | 61° |
| 2026-04-30 12:34 | 64.09970 | -20.44442 | 20908 ft | 468 kts | 60° |
| 2026-04-30 12:34 | 64.11752 | -20.38198 | 20908 ft | 466 kts | 47° |
| 2026-04-30 12:35 | 64.14040 | -20.33014 | 20909 ft | 462 kts | 34° |
| 2026-04-30 12:35 | 64.16662 | -20.28865 | 20916 ft | 457 kts | 28° |
| 2026-04-30 12:35 | 64.19336 | -20.24913 | 20919 ft | 457 kts | 27° |
| 2026-04-30 12:35 | 64.22019 | -20.20972 | 20969 ft | 457 kts | 28° |
| 2026-04-30 12:36 | 64.24685 | -20.16994 | 20908 ft | 456 kts | 30° |
| 2026-04-30 12:36 | 64.27349 | -20.12983 | 20911 ft | 457 kts | 30° |
| 2026-04-30 12:36 | 64.29984 | -20.09035 | 20913 ft | 458 kts | 30° |
| 2026-04-30 12:36 | 64.32654 | -20.05042 | 20912 ft | 458 kts | 30° |
| 2026-04-30 12:37 | 64.35333 | -20.01014 | 20916 ft | 457 kts | 30° |
| 2026-04-30 12:37 | 64.38007 | -19.96970 | 20915 ft | 458 kts | 30° |
| 2026-04-30 12:37 | 64.40706 | -19.92886 | 20904 ft | 458 kts | 30° |
| 2026-04-30 12:37 | 64.43377 | -19.88841 | 20905 ft | 458 kts | 30° |
| 2026-04-30 12:38 | 64.46049 | -19.84784 | 20901 ft | 458 kts | 30° |
| 2026-04-30 12:38 | 64.48707 | -19.80734 | 20902 ft | 457 kts | 30° |
| 2026-04-30 12:38 | 64.51368 | -19.76669 | 20903 ft | 456 kts | 30° |
| 2026-04-30 12:38 | 64.54026 | -19.72604 | 20902 ft | 457 kts | 30° |
| 2026-04-30 12:39 | 64.56691 | -19.68517 | 20894 ft | 458 kts | 30° |
| 2026-04-30 12:39 | 64.59351 | -19.64426 | 20894 ft | 459 kts | 31° |
| 2026-04-30 12:39 | 64.61989 | -19.60358 | 20893 ft | 459 kts | 31° |
| 2026-04-30 12:39 | 64.64656 | -19.56241 | 20908 ft | 459 kts | 31° |
| 2026-04-30 12:40 | 64.67302 | -19.52143 | 20899 ft | 457 kts | 31° |
| 2026-04-30 12:40 | 64.69987 | -19.47976 | 20901 ft | 457 kts | 32° |
| 2026-04-30 12:40 | 64.72635 | -19.43854 | 20890 ft | 457 kts | 32° |
| 2026-04-30 12:40 | 64.75282 | -19.39726 | 20890 ft | 458 kts | 32° |
| 2026-04-30 12:41 | 64.77939 | -19.35573 | 20893 ft | 458 kts | 32° |
| 2026-04-30 12:41 | 64.80591 | -19.31416 | 20892 ft | 458 kts | 32° |
| 2026-04-30 12:41 | 64.83236 | -19.27261 | 20893 ft | 457 kts | 32° |
| 2026-04-30 12:41 | 64.85881 | -19.23095 | 20896 ft | 458 kts | 32° |
| 2026-04-30 12:42 | 64.88528 | -19.18917 | 20896 ft | 457 kts | 32° |
| 2026-04-30 12:42 | 64.91112 | -19.14822 | 20864 ft | 436 kts | 32° |
| 2026-04-30 12:42 | 64.92757 | -19.12210 | 20837 ft | 423 kts | 33° |
| 2026-04-30 12:42 | 64.96010 | -19.07044 | 20862 ft | 422 kts | 32° |
| 2026-04-30 12:43 | 64.97617 | -19.04494 | 20865 ft | 419 kts | 32° |
| 2026-04-30 12:43 | 65.00045 | -19.00623 | 20865 ft | 421 kts | 32° |
| 2026-04-30 12:43 | 65.02472 | -18.96737 | 20866 ft | 421 kts | 32° |
| 2026-04-30 12:43 | 65.04930 | -18.92795 | 20869 ft | 421 kts | 32° |
| 2026-04-30 12:44 | 65.07361 | -18.88892 | 20864 ft | 424 kts | 33° |
| 2026-04-30 12:44 | 65.09797 | -18.84973 | 20861 ft | 422 kts | 33° |
| 2026-04-30 12:44 | 65.12264 | -18.80991 | 20860 ft | 423 kts | 33° |
| 2026-04-30 12:44 | 65.14698 | -18.77054 | 20861 ft | 422 kts | 33° |
| 2026-04-30 12:45 | 65.17129 | -18.73114 | 20859 ft | 423 kts | 33° |
| 2026-04-30 12:45 | 65.19688 | -18.69803 | 20832 ft | 419 kts | 16° |
| 2026-04-30 12:45 | 65.22532 | -18.68791 | 20518 ft | 412 kts | 355° |
| 2026-04-30 12:45 | 65.25355 | -18.69420 | 20044 ft | 403 kts | 345° |
| 2026-04-30 12:46 | 65.28090 | -18.70653 | 19567 ft | 398 kts | 343° |
| 2026-04-30 12:46 | 65.30867 | -18.71814 | 19075 ft | 402 kts | 347° |
| 2026-04-30 12:46 | 65.33628 | -18.72381 | 18594 ft | 404 kts | 352° |
| 2026-04-30 12:46 | 65.36440 | -18.72692 | 18098 ft | 404 kts | 352° |
| 2026-04-30 12:47 | 65.39284 | -18.73164 | 17638 ft | 402 kts | 350° |
| 2026-04-30 12:47 | 65.42009 | -18.73878 | 17381 ft | 393 kts | 347° |
| 2026-04-30 12:47 | 65.44704 | -18.74918 | 17016 ft | 383 kts | 344° |
| 2026-04-30 12:47 | 65.47354 | -18.76186 | 16472 ft | 406 kts | 344° |
| 2026-04-30 12:48 | 65.50243 | -18.77400 | 16409 ft | 432 kts | 347° |
| 2026-04-30 12:48 | 65.53280 | -18.77897 | 15892 ft | 435 kts | 356° |
| 2026-04-30 12:48 | 65.56294 | -18.77706 | 15356 ft | 423 kts | 359° |
| 2026-04-30 12:48 | 65.59187 | -18.77515 | 14838 ft | 411 kts | 356° |
| 2026-04-30 12:49 | 65.62015 | -18.77937 | 14324 ft | 405 kts | 349° |
| 2026-04-30 12:49 | 65.64813 | -18.78846 | 13846 ft | 404 kts | 347° |
| 2026-04-30 12:49 | 65.67655 | -18.79707 | 13374 ft | 407 kts | 350° |
| 2026-04-30 12:49 | 65.70486 | -18.80232 | 12887 ft | 409 kts | 352° |
| 2026-04-30 12:50 | 65.73320 | -18.80716 | 12368 ft | 407 kts | 351° |
| 2026-04-30 12:50 | 65.76145 | -18.81363 | 11942 ft | 405 kts | 350° |
| 2026-04-30 12:50 | 65.78977 | -18.81443 | 11457 ft | 412 kts | 6° |
| 2026-04-30 12:50 | 65.81674 | -18.78946 | 10993 ft | 420 kts | 31° |
| 2026-04-30 12:51 | 65.83883 | -18.74486 | 10570 ft | 414 kts | 45° |
| 2026-04-30 12:51 | 65.85217 | -18.70930 | 10306 ft | 395 kts | 49° |
| 2026-04-30 12:51 | 65.86880 | -18.66094 | 9463 ft | 363 kts | 49° |
| 2026-04-30 12:51 | 65.87972 | -18.63112 | 8990 ft | 341 kts | 45° |
| 2026-04-30 12:52 | 65.89134 | -18.60396 | 8701 ft | 315 kts | 40° |
| 2026-04-30 12:52 | 65.90793 | -18.57050 | 8314 ft | 286 kts | 38° |
| 2026-04-30 12:52 | 65.92355 | -18.53813 | 8190 ft | 304 kts | 40° |
| 2026-04-30 12:52 | 65.93892 | -18.50217 | 7855 ft | 297 kts | 50° |
| 2026-04-30 12:53 | 65.95206 | -18.46723 | 7421 ft | 268 kts | 29° |
| 2026-04-30 12:53 | 65.96592 | -18.43972 | 7201 ft | 257 kts | 58° |
| 2026-04-30 12:53 | 65.97063 | -18.39833 | 6995 ft | 248 kts | 94° |
| 2026-04-30 12:53 | 65.96954 | -18.35579 | 6793 ft | 247 kts | 102° |
| 2026-04-30 12:54 | 65.96404 | -18.31791 | 6515 ft | 226 kts | 133° |
| 2026-04-30 12:54 | 65.95313 | -18.29261 | 6351 ft | 212 kts | 158° |
| 2026-04-30 12:54 | 65.94001 | -18.27841 | 6124 ft | 207 kts | 163° |
| 2026-04-30 12:54 | 65.92713 | -18.26213 | 5855 ft | 209 kts | 156° |
| 2026-04-30 12:55 | 65.91849 | -18.24884 | 5679 ft | 208 kts | 153° |
| 2026-04-30 12:55 | 65.90642 | -18.22881 | 5406 ft | 210 kts | 150° |
| 2026-04-30 12:55 | 65.89464 | -18.20794 | 5124 ft | 208 kts | 153° |
| 2026-04-30 12:55 | 65.88285 | -18.18714 | 4844 ft | 209 kts | 148° |
| 2026-04-30 12:56 | 65.87196 | -18.16602 | 4561 ft | 189 kts | 147° |
| 2026-04-30 12:56 | 65.86190 | -18.14784 | 4273 ft | 177 kts | 152° |
| 2026-04-30 12:56 | 65.85184 | -18.13069 | 4001 ft | 174 kts | 150° |
| 2026-04-30 12:56 | 65.84137 | -18.11704 | 3708 ft | 165 kts | 160° |
| 2026-04-30 12:57 | 65.83107 | -18.10581 | 3383 ft | 158 kts | 165° |
| 2026-04-30 12:57 | 65.82062 | -18.09843 | 3039 ft | 151 kts | 176° |
| 2026-04-30 12:57 | 65.81046 | -18.09419 | 2823 ft | 142 kts | 180° |
| 2026-04-30 12:57 | 65.80109 | -18.09087 | 2429 ft | 131 kts | 183° |
| 2026-04-30 12:58 | 65.79224 | -18.08948 | 2146 ft | 127 kts | 186° |
| 2026-04-30 12:58 | 65.78319 | -18.09027 | 1892 ft | 139 kts | 184° |
| 2026-04-30 12:58 | 65.77372 | -18.09130 | 1543 ft | 137 kts | 183° |
| 2026-04-30 12:58 | 65.76426 | -18.09101 | 1608 ft | 139 kts | 177° |
| 2026-04-30 12:59 | 65.75423 | -18.08944 | 1697 ft | 149 kts | 175° |
| 2026-04-30 12:59 | 65.74349 | -18.08759 | 1737 ft | 146 kts | 177° |
| 2026-04-30 12:59 | 65.73308 | -18.08541 | 1643 ft | 150 kts | 175° |
| 2026-04-30 12:59 | 65.72256 | -18.08372 | 1448 ft | 153 kts | 176° |
| 2026-04-30 13:00 | 65.71236 | -18.08224 | 1200 ft | 141 kts | 174° |
| 2026-04-30 13:00 | 65.70581 | -18.08078 | 1011 ft | 138 kts | 175° |
| 2026-04-30 13:00 | 65.69658 | -18.07838 | 684 ft | 129 kts | 181° |
| 2026-04-30 13:00 | 65.68747 | -18.07696 | 532 ft | 136 kts | 176° |
| 2026-04-30 13:01 | 65.67792 | -18.07584 | 263 ft | 131 kts | 180° |
| 2026-04-30 13:01 | 65.66877 | -18.07417 | 95 ft | 137 kts | 177° |
| 2026-04-30 13:01 | 65.66046 | -18.07266 | 35 ft | 105 kts | 180° |
| 2026-04-30 13:01 | 65.65301 | -18.07148 | 104 ft | 95 kts | 179° |
| 2026-04-30 13:02 | 65.65052 | -18.07108 | 17 ft | 0 kts | 176° |